Terminal Aerodrome Forecast
Issued by NWS Houston/Galveston, TX

Home | Current Version | Previous Version | Text Only | Print | Product List | Glossary On
Versions: 1 2 3 4 5 6 7 8 9 10 11 12 13 14 15 16 17 18 19 20 21 22 23 24 25 26 27 28 29 30 31 32 33 34
792
FTUS44 KHGX 242327
TAFCLL
TAF
KCLL 242327Z 2500/2524 17015G25KT P6SM FEW040 BKN250
     FM250200 16011KT P6SM SCT025
     FM250500 18008KT P6SM BKN025
     FM250700 25006KT P6SM VCSH SCT005 BKN015 OVC025
     FM251400 33009KT P6SM SCT015 BKN050 BKN250
     FM251600 34008KT P6SM BKN250=

USA.gov is the U.S. government's official web portal to all federal, state and local government web resources and services.